Time;durP1;ratioP1;P1;durP2;ratioP2;P2;SDS_P1;SDS_P2;PMS_P1;PMS_P2;Temp;Humidity;BMP_temperature;BMP_pressure;BME280_temperature;BME280_humidity;BME280_pressure;Samples;Min_cycle;Max_cycle;Signal;HPM_P1;HPM_P2
2024/04/02 06:50:04;;;;;;;2.85;0.90;;;;;;;6.14;96.88;96046.13;2083097;28;20570;-64
2024/04/02 06:55:54;;;;;;;1.35;0.70;;;;;;;6.36;96.28;96047.91;2117674;27;20712;-63
2024/04/02 06:56:55;;;;;;;4.97;0.70;;;;;;;6.55;96.18;96048.06;2103369;28;20264;-63
2024/04/02 06:57:56;;;;;;;3.40;0.60;;;;;;;6.77;94.58;96039.50;2094920;28;20266;-64
2024/04/02 06:58:56;;;;;;;4.30;0.87;;;;;;;6.94;93.78;96038.81;2094815;28;20728;-64
2024/04/02 06:59:57;;;;;;;2.33;0.80;;;;;;;7.06;93.25;96043.50;2094947;28;20590;-64
2024/04/02 07:00:57;;;;;;;1.87;0.90;;;;;;;7.29;92.60;96041.75;2094399;28;20245;-64
2024/04/02 07:01:58;;;;;;;3.83;0.90;;;;;;;7.48;90.02;96045.25;2094840;28;20781;-64
2024/04/02 07:02:58;;;;;;;8.63;1.10;;;;;;;7.71;89.31;96042.56;2103259;28;20535;-64
2024/04/02 07:03:59;;;;;;;5.57;0.80;;;;;;;7.96;87.97;96045.81;2094230;28;20274;-64
2024/04/02 07:04:59;;;;;;;4.30;1.10;;;;;;;8.11;87.30;96046.03;2094815;28;20194;-63
2024/04/02 07:06:00;;;;;;;3.87;0.90;;;;;;;8.18;86.67;96050.91;2094572;28;20221;-64
2024/04/02 07:07:00;;;;;;;2.30;0.73;;;;;;;8.33;85.20;96044.16;2094941;28;20218;-64
2024/04/02 07:08:01;;;;;;;2.73;1.23;;;;;;;8.52;84.12;96045.13;2093435;28;20200;-64
2024/04/02 07:09:01;;;;;;;4.07;1.00;;;;;;;8.48;83.30;96047.00;2094785;28;20207;-64
2024/04/02 07:10:03;;;;;;;5.93;1.13;;;;;;;8.39;83.12;96047.41;2094912;28;20268;-64
2024/04/02 07:11:05;;;;;;;4.35;1.20;;;;;;;8.21;84.04;96055.13;2100329;28;20222;-64
2024/04/02 07:12:06;;;;;;;4.32;0.90;;;;;;;8.09;83.40;96060.88;2103259;28;20202;-64
2024/04/02 07:13:07;;;;;;;10.80;1.10;;;;;;;8.01;83.82;96062.06;2103229;28;20198;-65
2024/04/02 07:14:07;;;;;;;5.50;1.10;;;;;;;7.86;83.79;96062.72;2094842;28;20900;-65
2024/04/02 07:15:08;;;;;;;6.60;1.83;;;;;;;7.81;84.64;96057.72;2103174;28;20210;-64
2024/04/02 07:16:08;;;;;;;6.17;1.00;;;;;;;7.70;84.90;96072.09;2094251;28;20368;-64
2024/04/02 07:17:09;;;;;;;2.60;0.90;;;;;;;7.61;85.66;96066.34;2094207;28;20207;-64
2024/04/02 07:19:35;;;;;;;5.43;0.93;;;;;;;7.31;86.33;96069.34;2083937;28;20554;-64
2024/04/02 07:20:36;;;;;;;5.13;1.00;;;;;;;7.41;87.08;96069.78;2088067;28;20211;-64
2024/04/02 07:21:36;;;;;;;3.53;1.37;;;;;;;7.58;85.87;96070.84;2073617;28;20215;-64
2024/04/02 07:22:39;;;;;;;5.13;1.17;;;;;;;7.62;84.96;96057.66;2065780;28;20218;-64
2024/04/02 07:23:41;;;;;;;5.32;1.35;;;;;;;7.78;84.71;96075.19;2067607;28;20237;-64
2024/04/02 07:24:41;;;;;;;2.75;0.82;;;;;;;7.94;84.37;96076.22;2070062;28;20236;-64
2024/04/02 07:25:42;;;;;;;6.47;0.90;;;;;;;8.30;83.83;96075.53;2066726;28;20247;-64
2024/04/02 07:26:42;;;;;;;5.23;1.53;;;;;;;8.59;82.18;96064.75;2064193;28;20218;-64
2024/04/02 07:27:46;;;;;;;10.60;1.27;;;;;;;8.94;80.99;96075.28;2063764;28;20202;-65
2024/04/02 07:28:46;;;;;;;4.50;0.95;;;;;;;8.98;80.67;96063.81;2075594;28;20201;-64
2024/04/02 07:29:47;;;;;;;3.33;0.80;;;;;;;8.83;80.59;96066.19;2065992;28;20201;-64
2024/04/02 07:30:48;;;;;;;5.90;1.07;;;;;;;9.18;79.01;96068.06;2073596;28;20221;-64
2024/04/02 07:31:48;;;;;;;4.30;1.20;;;;;;;9.55;77.05;96068.00;2075475;28;20247;-65
2024/04/02 07:32:51;;;;;;;3.83;1.03;;;;;;;9.70;77.26;96075.06;2074737;28;20469;-64
2024/04/02 07:33:52;;;;;;;3.83;0.95;;;;;;;9.39;76.31;96073.13;2067087;28;20269;-64
2024/04/02 07:34:52;;;;;;;4.80;0.97;;;;;;;9.50;76.61;96067.38;2067169;28;20216;-63
2024/04/02 07:35:56;;;;;;;4.90;1.20;;;;;;;10.08;75.35;96074.03;2066105;28;20238;-64
2024/04/02 07:36:57;;;;;;;6.95;1.30;;;;;;;10.28;74.47;96072.97;2068642;28;20652;-63
2024/04/02 07:37:57;;;;;;;9.73;1.20;;;;;;;10.25;72.85;96075.78;2066995;28;20481;-65
2024/04/02 07:38:58;;;;;;;7.30;1.20;;;;;;;9.79;75.00;96069.38;2061908;28;20233;-64
2024/04/02 07:39:59;;;;;;;3.03;1.10;;;;;;;9.67;74.20;96072.59;2067117;28;20249;-65
2024/04/02 07:40:59;;;;;;;2.80;0.97;;;;;;;9.32;75.60;96077.81;2071762;28;20408;-65
2024/04/02 07:42:00;;;;;;;3.27;1.00;;;;;;;8.88;75.66;96080.78;2068016;28;20945;-65
2024/04/02 07:43:01;;;;;;;5.90;1.00;;;;;;;8.69;76.89;96071.22;2067047;28;20206;-65
2024/04/02 07:44:01;;;;;;;10.47;1.03;;;;;;;8.44;77.99;96081.88;2065501;28;20891;-66
2024/04/02 07:45:02;;;;;;;4.80;1.00;;;;;;;8.37;78.44;96083.03;2066458;28;20206;-64
2024/04/02 07:46:03;;;;;;;6.38;1.10;;;;;;;8.21;78.82;96073.31;2067415;28;20264;-64
2024/04/02 07:47:03;;;;;;;7.90;1.33;;;;;;;8.12;79.28;96068.53;2066750;28;20206;-64
2024/04/02 07:48:05;;;;;;;3.03;0.97;;;;;;;8.09;80.21;96081.69;2076082;28;20205;-64
2024/04/02 07:49:05;;;;;;;9.45;1.20;;;;;;;8.12;80.54;96086.75;2073076;28;20217;-64
2024/04/02 07:50:06;;;;;;;5.93;1.30;;;;;;;7.95;79.79;96083.13;2071905;28;20205;-64
2024/04/02 07:51:10;;;;;;;5.03;1.30;;;;;;;7.92;80.80;96078.06;2063426;28;20230;-64
2024/04/02 07:52:10;;;;;;;13.60;1.75;;;;;;;7.97;81.33;96090.84;2068438;28;20210;-64
2024/04/02 07:53:11;;;;;;;3.87;1.20;;;;;;;7.94;80.40;96083.19;2067806;28;20220;-64
2024/04/02 07:54:14;;;;;;;10.33;2.17;;;;;;;7.84;80.85;96098.34;2073979;28;20204;-64
2024/04/02 07:57:58;;;;;;;10.65;1.70;;;;;;;7.71;80.06;96094.56;2100951;27;20569;-64
2024/04/02 07:58:59;;;;;;;13.00;1.58;;;;;;;7.81;79.89;96091.50;2097272;28;20786;-63
2024/04/02 07:59:59;;;;;;;6.53;1.10;;;;;;;8.00;80.87;96098.53;2088686;28;20208;-64
2024/04/02 08:01:00;;;;;;;8.10;1.30;;;;;;;7.99;79.83;96091.63;2094212;28;20570;-64
2024/04/02 08:02:01;;;;;;;7.17;1.37;;;;;;;7.97;79.57;96096.06;2090044;28;20530;-64
2024/04/02 08:03:03;;;;;;;4.50;1.15;;;;;;;7.94;79.89;96107.44;2083862;28;20456;-64
2024/04/02 08:04:05;;;;;;;5.57;1.05;;;;;;;8.05;80.03;96098.31;2083756;28;20219;-64
2024/04/02 08:05:05;;;;;;;3.78;1.17;;;;;;;8.11;79.44;96087.66;2082368;28;20240;-64
2024/04/02 08:06:06;;;;;;;3.77;0.83;;;;;;;8.15;79.06;96094.41;2080120;28;20262;-63
2024/04/02 08:07:06;;;;;;;5.10;1.00;;;;;;;8.23;78.66;96100.13;2082503;28;20254;-64
2024/04/02 08:08:07;;;;;;;3.97;0.90;;;;;;;8.19;78.74;96101.19;2083523;28;20220;-64
2024/04/02 08:09:08;;;;;;;6.13;1.30;;;;;;;8.17;78.41;96101.22;2085270;28;20694;-64
2024/04/02 08:10:08;;;;;;;6.70;1.55;;;;;;;8.09;78.13;96108.53;2082447;28;20236;-64
2024/04/02 08:11:09;;;;;;;8.50;1.10;;;;;;;8.12;78.87;96102.34;2080876;28;20259;-64
2024/04/02 08:12:10;;;;;;;9.33;1.50;;;;;;;8.16;78.71;96106.50;2091454;28;20210;-64
2024/04/02 08:13:10;;;;;;;4.93;0.90;;;;;;;8.30;78.99;96111.97;2088110;28;20204;-64
2024/04/02 08:14:11;;;;;;;3.87;0.90;;;;;;;8.24;77.78;96113.97;2090084;28;20451;-64
2024/04/02 08:21:10;;;;;;;4.00;1.05;;;;;;;7.84;79.70;96121.72;2095239;27;21087;-64
2024/04/02 08:23:56;;;;;;;6.40;1.80;;;;;;;7.81;79.70;96127.06;2082477;28;20557;-64
2024/04/02 08:28:39;;;;;;;4.20;0.90;;;;;;;7.76;79.72;96148.03;2085187;28;20567;-64
2024/04/02 08:29:40;;;;;;;9.77;1.30;;;;;;;7.79;80.03;96145.31;2081070;28;20200;-64
2024/04/02 08:30:41;;;;;;;9.40;1.00;;;;;;;7.81;80.09;96158.25;2069308;28;20207;-64
2024/04/02 08:33:01;;;;;;;6.32;1.17;;;;;;;7.62;81.07;96152.97;2084516;28;20563;-64
2024/04/02 08:35:24;;;;;;;6.28;1.00;;;;;;;7.52;81.29;96157.69;2087371;28;20559;-63
2024/04/02 08:37:39;;;;;;;4.50;1.05;;;;;;;7.45;81.34;96171.81;2083723;28;20572;-64
2024/04/02 08:38:39;;;;;;;6.77;0.90;;;;;;;7.51;81.30;96153.41;2080704;28;20208;-64
2024/04/02 08:39:43;;;;;;;2.03;0.77;;;;;;;7.42;81.23;96161.56;2082448;28;20208;-63
2024/04/02 08:40:51;;;;;;;4.80;1.05;;;;;;;7.51;81.34;96164.63;2080122;28;20223;-64
2024/04/02 08:41:58;;;;;;;2.85;0.73;;;;;;;7.57;81.42;96163.53;2071249;28;20224;-64
2024/04/02 08:43:05;;;;;;;4.47;0.90;;;;;;;7.56;80.71;96180.03;2070677;28;20221;-64
2024/04/02 08:44:06;;;;;;;2.75;1.00;;;;;;;7.59;80.83;96160.88;2068063;28;20304;-64
2024/04/02 08:45:09;;;;;;;3.37;1.17;;;;;;;7.49;81.11;96163.84;2071663;28;20210;-64
2024/04/02 08:46:10;;;;;;;5.75;1.08;;;;;;;7.46;81.56;96171.75;2065553;28;20228;-64
2024/04/02 08:47:12;;;;;;;4.13;0.88;;;;;;;7.41;81.60;96171.09;2069569;28;20241;-65
2024/04/02 08:48:15;;;;;;;6.97;1.27;;;;;;;7.49;81.99;96155.19;2078074;28;20296;-64
2024/04/02 08:49:18;;;;;;;4.78;1.10;;;;;;;7.70;81.65;96163.88;2070493;28;20631;-64
2024/04/02 08:50:19;;;;;;;2.20;0.88;;;;;;;7.93;80.00;96185.50;2069800;28;20296;-65
2024/04/02 08:51:20;;;;;;;3.80;1.03;;;;;;;8.41;79.61;96160.06;2069516;28;20362;-64
2024/04/02 08:52:20;;;;;;;7.82;1.88;;;;;;;8.68;77.67;96188.41;2078357;28;20675;-65
2024/04/02 08:53:22;;;;;;;3.60;0.90;;;;;;;8.75;76.63;96159.44;2070064;28;20564;-64
2024/04/02 08:54:22;;;;;;;6.82;1.00;;;;;;;8.87;75.40;96163.25;2070078;28;20591;-64
2024/04/02 08:55:23;;;;;;;4.70;1.07;;;;;;;8.93;75.45;96164.72;2070047;28;20206;-64
2024/04/02 08:56:23;;;;;;;4.13;1.00;;;;;;;8.96;75.43;96169.78;2068947;28;20345;-65
2024/04/02 08:57:26;;;;;;;3.73;1.17;;;;;;;9.07;75.50;96174.53;2069773;28;20221;-64
2024/04/02 08:58:27;;;;;;;13.43;1.15;;;;;;;9.25;75.08;96175.41;2070548;28;20213;-65
2024/04/02 08:59:30;;;;;;;13.00;1.35;;;;;;;9.49;74.18;96176.00;2070382;28;20562;-64
2024/04/02 09:00:30;;;;;;;4.32;1.10;;;;;;;9.49;73.90;96170.81;2077623;28;20216;-65
2024/04/02 09:01:31;;;;;;;4.47;1.00;;;;;;;9.60;72.95;96188.53;2078049;28;20209;-64
2024/04/02 09:02:33;;;;;;;5.87;0.93;;;;;;;9.39;73.10;96183.41;2069618;28;20209;-67
2024/04/02 09:03:34;;;;;;;13.20;1.13;;;;;;;9.65;73.18;96178.75;2078608;28;20205;-66
2024/04/02 09:04:35;;;;;;;2.35;0.70;;;;;;;9.79;72.52;96168.47;2078255;28;20257;-66
2024/04/02 09:05:35;;;;;;;3.37;1.10;;;;;;;9.64;73.53;96175.28;2062853;28;20241;-66
2024/04/02 09:06:37;;;;;;;3.10;0.97;;;;;;;9.42;73.30;96182.44;2070219;28;20221;-67
2024/04/02 09:07:37;;;;;;;8.45;1.20;;;;;;;9.41;73.23;96189.41;2070374;28;20197;-67
2024/04/02 09:08:48;;;;;;;5.47;1.20;;;;;;;9.35;73.21;96176.66;2069932;28;20803;-66
2024/04/02 09:09:48;;;;;;;7.85;1.00;;;;;;;9.50;72.99;96172.50;2067198;28;21080;-66
2024/04/02 09:10:49;;;;;;;5.17;1.13;;;;;;;9.54;72.58;96178.41;2069155;28;20532;-67
2024/04/02 09:11:50;;;;;;;6.03;1.17;;;;;;;9.30;72.86;96182.09;2078300;28;20244;-66
2024/04/02 09:12:51;;;;;;;5.30;1.15;;;;;;;9.19;72.91;96179.13;2078109;28;20205;-67
2024/04/02 09:13:51;;;;;;;4.50;0.80;;;;;;;9.56;71.83;96172.22;2070183;28;20202;-67
2024/04/02 09:14:52;;;;;;;6.50;1.10;;;;;;;9.82;72.09;96170.09;2070073;28;20202;-66
2024/04/02 09:15:53;;;;;;;5.87;1.20;;;;;;;10.19;71.12;96181.28;2066859;28;20221;-66
2024/04/02 09:16:54;;;;;;;7.30;1.10;;;;;;;10.18;70.74;96178.75;2070058;28;20292;-67
2024/04/02 09:17:55;;;;;;;9.23;1.40;;;;;;;10.09;69.70;96177.44;2070018;28;20230;-67
2024/04/02 09:18:57;;;;;;;3.23;0.80;;;;;;;10.20;70.02;96180.38;2070139;28;20316;-67
2024/04/02 09:19:57;;;;;;;4.80;1.20;;;;;;;10.81;69.86;96174.72;2068774;28;20206;-67
2024/04/02 09:21:00;;;;;;;6.07;1.43;;;;;;;10.80;68.45;96183.47;2069030;28;20214;-69
2024/04/02 09:22:00;;;;;;;4.75;1.00;;;;;;;10.63;68.50;96179.97;2078248;28;20209;-67
2024/04/02 09:23:01;;;;;;;7.47;1.10;;;;;;;11.01;68.72;96182.31;2070115;28;20206;-67
2024/04/02 09:24:02;;;;;;;5.40;1.00;;;;;;;10.76;68.51;96180.16;2070140;28;20238;-67
2024/04/02 09:25:03;;;;;;;10.20;1.53;;;;;;;10.37;68.09;96195.19;2070164;28;20648;-67
2024/04/02 09:26:03;;;;;;;3.80;1.03;;;;;;;10.48;66.98;96180.78;2068750;28;20326;-67
2024/04/02 09:27:04;;;;;;;14.20;1.00;;;;;;;10.84;67.11;96172.75;2069748;28;20206;-67
2024/04/02 09:28:05;;;;;;;8.23;1.43;;;;;;;10.68;66.89;96179.72;2077861;28;20209;-67
2024/04/02 09:29:05;;;;;;;4.90;1.20;;;;;;;10.92;67.49;96175.81;2070017;28;20514;-68
2024/04/02 09:30:06;;;;;;;10.00;1.50;;;;;;;10.42;67.73;96171.47;2078000;28;20295;-67
2024/04/02 09:31:07;;;;;;;6.28;1.10;;;;;;;10.66;67.10;96155.47;2068567;28;20562;-67
2024/04/02 09:32:08;;;;;;;6.80;1.00;;;;;;;10.85;66.02;96178.84;2069635;28;20228;-67
2024/04/02 09:33:09;;;;;;;8.80;1.40;;;;;;;10.57;66.66;96168.06;2077940;28;20205;-67
2024/04/02 09:34:10;;;;;;;7.63;1.27;;;;;;;10.61;65.18;96187.03;2070113;28;20215;-67
2024/04/02 09:35:14;;;;;;;5.53;1.27;;;;;;;10.67;65.49;96163.22;2078113;28;20660;-67
2024/04/02 09:36:46;;;;;;;5.30;1.23;;;;;;;10.77;65.85;96176.63;2069736;28;20306;-67
2024/04/02 09:37:50;;;;;;;7.40;1.08;;;;;;;9.99;64.97;96179.66;2063122;28;20237;-67
2024/04/02 09:38:54;;;;;;;6.03;1.17;;;;;;;10.39;65.84;96177.69;2054405;28;20200;-67
2024/04/02 09:39:56;;;;;;;3.20;1.30;;;;;;;10.18;66.17;96166.53;2060874;28;20214;-67
2024/04/02 09:40:57;;;;;;;9.10;1.40;;;;;;;10.57;65.40;96165.44;2077883;28;20232;-67
2024/04/02 09:41:59;;;;;;;6.47;0.95;;;;;;;10.43;65.13;96167.94;2078198;28;20709;-67
2024/04/02 09:43:02;;;;;;;3.28;0.98;;;;;;;10.58;63.78;96161.09;2069907;28;20602;-67
2024/04/02 09:44:03;;;;;;;9.93;1.70;;;;;;;10.73;64.10;96173.34;2060938;28;20223;-67
2024/04/02 09:45:12;;;;;;;4.90;1.02;;;;;;;10.94;64.64;96168.75;2067400;28;20210;-67
2024/04/02 09:46:15;;;;;;;5.07;1.20;;;;;;;11.28;63.53;96169.50;2068414;28;20234;-67
2024/04/02 09:47:18;;;;;;;7.40;1.30;;;;;;;11.13;64.72;96167.72;2063609;28;20237;-67
2024/04/02 09:48:22;;;;;;;4.43;0.90;;;;;;;10.55;64.19;96188.19;2063368;28;20245;-67
2024/04/02 09:49:24;;;;;;;3.72;1.35;;;;;;;10.61;64.07;96176.59;2064074;28;20221;-67
2024/04/02 09:50:26;;;;;;;9.48;1.60;;;;;;;10.80;62.81;96176.47;2064701;28;20241;-67
2024/04/02 09:51:27;;;;;;;8.55;1.65;;;;;;;11.10;62.48;96180.97;2063889;28;20229;-67
2024/04/02 09:52:28;;;;;;;5.23;1.10;;;;;;;11.33;63.24;96178.88;2064090;28;20238;-67
2024/04/02 09:53:29;;;;;;;4.13;1.20;;;;;;;11.96;61.96;96169.28;2056144;28;20512;-68
2024/04/02 09:54:30;;;;;;;4.40;1.20;;;;;;;11.99;61.88;96174.34;2056554;28;20453;-67
2024/04/02 09:55:31;;;;;;;3.33;1.15;;;;;;;11.89;61.41;96177.44;2066030;28;20211;-67
2024/04/02 09:56:33;;;;;;;3.60;0.90;;;;;;;11.76;60.81;96181.72;2064177;28;20619;-67
2024/04/02 09:57:36;;;;;;;6.35;0.90;;;;;;;11.06;62.14;96175.06;2063426;28;20626;-68
2024/04/02 09:58:36;;;;;;;7.18;1.08;;;;;;;10.95;62.39;96169.56;2064211;28;20226;-67
2024/04/02 09:59:38;;;;;;;4.33;1.20;;;;;;;11.15;61.33;96165.03;2063467;28;20203;-67
2024/04/02 10:00:43;;;;;;;8.90;2.28;;;;;;;10.88;63.10;96176.91;2063621;28;20203;-67
2024/04/02 10:01:44;;;;;;;7.38;2.15;;;;;;;10.88;63.13;96171.69;2064919;28;20214;-67
2024/04/02 10:02:46;;;;;;;5.57;2.05;;;;;;;10.82;63.52;96176.38;2063617;28;20218;-67
2024/04/02 10:03:48;;;;;;;7.45;1.60;;;;;;;10.71;63.83;96185.63;2061969;28;20211;-67
2024/04/02 10:04:51;;;;;;;6.80;1.60;;;;;;;10.61;64.29;96179.19;2064496;28;20198;-67
2024/04/02 10:05:52;;;;;;;5.65;0.93;;;;;;;10.67;63.46;96175.44;2070932;28;20221;-67
2024/04/02 10:06:55;;;;;;;3.60;1.57;;;;;;;10.84;63.10;96180.59;2064366;28;20214;-67
2024/04/02 10:07:57;;;;;;;6.13;0.98;;;;;;;10.66;62.51;96179.78;2063729;28;20203;-67
2024/04/02 10:08:59;;;;;;;5.78;1.30;;;;;;;10.67;62.92;96178.03;2064391;28;20268;-67
2024/04/02 10:10:00;;;;;;;4.38;0.90;;;;;;;10.60;63.07;96180.97;2064428;28;20223;-67
2024/04/02 10:11:03;;;;;;;5.70;1.00;;;;;;;10.75;62.52;96184.56;2058286;28;20234;-67
2024/04/02 10:12:05;;;;;;;4.75;0.90;;;;;;;10.49;61.90;96178.06;2064656;28;20343;-67
2024/04/02 10:13:06;;;;;;;5.22;1.13;;;;;;;10.59;61.49;96174.06;2060699;28;20573;-67
2024/04/02 10:14:09;;;;;;;5.80;0.95;;;;;;;10.71;61.83;96180.41;2063792;28;20225;-67
2024/04/02 10:15:13;;;;;;;6.65;1.10;;;;;;;10.89;61.63;96190.81;2059702;28;20218;-67
2024/04/02 10:16:14;;;;;;;5.38;1.00;;;;;;;11.30;61.09;96179.03;2057499;28;20226;-68
2024/04/02 10:17:15;;;;;;;3.00;1.00;;;;;;;11.44;60.99;96186.97;2064293;28;20237;-67
2024/04/02 10:18:16;;;;;;;6.05;1.02;;;;;;;11.91;59.02;96187.84;2072443;28;20234;-67
2024/04/02 10:19:22;;;;;;;4.55;1.20;;;;;;;12.43;58.64;96181.38;2064320;28;20211;-67
2024/04/02 10:20:24;;;;;;;3.45;0.98;;;;;;;12.62;57.48;96170.63;2060931;28;20218;-67
2024/04/02 10:21:25;;;;;;;2.83;1.00;;;;;;;12.90;56.94;96185.50;2051386;28;20230;-66
2024/04/02 10:22:36;;;;;;;2.17;1.00;;;;;;;12.78;56.35;96183.63;2063234;28;20219;-67
2024/04/02 10:23:36;;;;;;;3.67;1.05;;;;;;;11.92;57.48;96182.50;2064896;28;20226;-67
2024/04/02 10:24:37;;;;;;;5.83;1.10;;;;;;;11.55;58.76;96184.59;2064282;28;20210;-67
2024/04/02 10:25:37;;;;;;;7.67;1.10;;;;;;;11.18;59.67;96196.25;2063749;28;20227;-67
2024/04/02 10:26:39;;;;;;;5.33;1.30;;;;;;;10.84;59.54;96174.53;2059060;28;20216;-67
2024/04/02 10:27:49;;;;;;;4.10;1.15;;;;;;;10.74;59.31;96182.88;2064025;28;20436;-67
2024/04/02 10:28:53;;;;;;;3.90;0.80;;;;;;;10.88;60.12;96187.34;2058650;28;20634;-67
2024/04/02 10:29:53;;;;;;;4.55;1.40;;;;;;;11.60;58.48;96189.56;2063995;28;20216;-67
2024/04/02 10:30:54;;;;;;;2.70;0.83;;;;;;;12.09;57.35;96171.09;2061356;28;20224;-67
2024/04/02 10:31:56;;;;;;;5.80;1.50;;;;;;;12.74;56.88;96176.91;2064105;28;20670;-67
2024/04/02 10:32:57;;;;;;;5.80;1.30;;;;;;;13.43;55.92;96163.09;2064312;28;20215;-67
2024/04/02 10:33:57;;;;;;;1.57;0.70;;;;;;;13.21;54.63;96169.66;2064018;28;20209;-67
2024/04/02 10:34:58;;;;;;;2.67;1.00;;;;;;;13.18;55.37;96170.69;2064243;28;20734;-67
2024/04/02 10:36:01;;;;;;;6.03;1.00;;;;;;;12.56;55.80;96171.84;2069449;28;20289;-67
2024/04/02 10:37:05;;;;;;;2.50;0.85;;;;;;;12.27;56.46;96173.56;2059855;28;20214;-67
2024/04/02 10:38:05;;;;;;;6.50;1.20;;;;;;;11.81;56.86;96174.44;2063854;28;20241;-67
2024/04/02 10:39:10;;;;;;;4.27;0.90;;;;;;;12.15;57.79;96174.28;2064074;28;20228;-68
2024/04/02 10:40:11;;;;;;;6.88;1.10;;;;;;;12.49;57.21;96172.28;2059735;28;20210;-67
2024/04/02 10:41:12;;;;;;;3.00;0.70;;;;;;;11.79;58.69;96183.31;2059875;28;20227;-67
2024/04/02 10:42:12;;;;;;;5.23;0.70;;;;;;;11.59;58.45;96169.56;2066596;28;20592;-67
2024/04/02 10:43:13;;;;;;;5.10;0.90;;;;;;;12.35;57.37;96165.25;2064152;28;21223;-67
2024/04/02 10:44:20;;;;;;;5.37;0.73;;;;;;;11.31;58.44;96157.19;2072121;28;20218;-67
2024/04/02 10:45:23;;;;;;;2.70;0.90;;;;;;;11.01;59.72;96164.03;2064779;28;20211;-67
2024/04/02 10:46:27;;;;;;;7.00;0.85;;;;;;;10.88;60.34;96163.00;2062333;28;20219;-67
2024/04/02 10:47:29;;;;;;;6.25;1.30;;;;;;;11.46;59.04;96171.19;2064173;28;20202;-67
2024/04/02 10:48:30;;;;;;;5.95;1.25;;;;;;;12.09;57.88;96168.47;2057713;28;20663;-67
2024/04/02 10:49:30;;;;;;;8.97;0.97;;;;;;;12.07;57.58;96159.88;2055699;28;20724;-67
2024/04/02 10:50:31;;;;;;;4.20;1.00;;;;;;;11.76;59.25;96159.00;2067117;28;20336;-67
2024/04/02 10:51:32;;;;;;;4.03;0.90;;;;;;;11.58;59.61;96167.91;2062854;28;20222;-67
2024/04/02 10:52:36;;;;;;;6.97;1.48;;;;;;;12.39;58.86;96175.47;2058223;28;20219;-67
2024/04/02 10:53:37;;;;;;;8.07;0.93;;;;;;;12.34;58.63;96176.66;2058317;28;20235;-68
2024/04/02 10:54:37;;;;;;;3.20;0.90;;;;;;;11.73;60.26;96187.09;2057727;28;20267;-67
2024/04/02 10:55:38;;;;;;;3.80;1.00;;;;;;;11.09;61.37;96181.91;2057346;28;20745;-67
2024/04/02 10:56:40;;;;;;;3.80;0.80;;;;;;;10.55;62.79;96184.72;2063850;28;20612;-67
2024/04/02 10:57:41;;;;;;;6.25;1.02;;;;;;;10.55;63.54;96180.38;2063705;28;20473;-66
2024/04/02 10:58:42;;;;;;;8.95;0.90;;;;;;;10.88;64.30;96179.53;2071840;28;20237;-67
2024/04/02 10:59:43;;;;;;;3.77;0.70;;;;;;;11.40;62.94;96180.22;2063603;28;20806;-67
2024/04/02 11:00:44;;;;;;;7.97;1.08;;;;;;;11.86;61.89;96171.53;2062420;28;20479;-67
2024/04/02 11:01:45;;;;;;;2.43;0.70;;;;;;;11.75;60.76;96193.09;2063207;28;20644;-67
2024/04/02 11:02:46;;;;;;;5.70;1.13;;;;;;;12.31;60.94;96180.31;2056899;28;20440;-67
2024/04/02 11:03:50;;;;;;;2.03;0.70;;;;;;;12.16;59.71;96192.50;2057342;28;20568;-67
2024/04/02 11:04:51;;;;;;;3.13;0.68;;;;;;;12.17;59.50;96188.97;2059631;28;20678;-67
2024/04/02 11:05:51;;;;;;;2.00;1.00;;;;;;;12.22;59.55;96186.91;2062479;28;20608;-67
2024/04/02 11:06:52;;;;;;;4.50;1.10;;;;;;;12.45;59.65;96183.91;2063958;28;20211;-67
2024/04/02 11:07:52;;;;;;;5.33;1.00;;;;;;;12.51;59.14;96197.44;2071920;28;20652;-67
2024/04/02 11:08:54;;;;;;;4.70;1.07;;;;;;;13.09;58.86;96183.53;2080149;28;20296;-67
2024/04/02 11:09:56;;;;;;;3.03;0.80;;;;;;;12.90;58.32;96192.53;2071935;28;20602;-67
2024/04/02 11:10:56;;;;;;;1.83;0.80;;;;;;;12.45;58.64;96187.34;2063116;28;20556;-67
2024/04/02 11:11:58;;;;;;;2.93;1.00;;;;;;;12.56;59.38;96190.16;2063906;28;20228;-68
2024/04/02 11:12:59;;;;;;;4.15;0.82;;;;;;;12.90;59.39;96192.53;2063577;28;20223;-67
2024/04/02 11:14:06;;;;;;;3.17;0.73;;;;;;;12.65;58.52;96201.88;2055754;28;20214;-67
2024/04/02 11:15:11;;;;;;;4.50;0.95;;;;;;;12.31;59.08;96200.41;2060061;28;20407;-67
2024/04/02 11:16:12;;;;;;;3.28;1.15;;;;;;;11.98;60.23;96189.19;2062889;28;20685;-68
2024/04/02 11:17:12;;;;;;;3.53;1.00;;;;;;;12.10;59.64;96185.03;2059639;28;20600;-67
2024/04/02 11:18:22;;;;;;;4.67;0.90;;;;;;;12.18;59.67;96174.94;2067414;28;20244;-67
2024/04/02 11:19:22;;;;;;;1.58;0.77;;;;;;;11.97;59.33;96184.06;2077847;28;20656;-67
2024/04/02 11:20:23;;;;;;;7.40;1.00;;;;;;;12.52;59.19;96183.44;2063437;28;20198;-67
2024/04/02 11:21:25;;;;;;;6.60;1.97;;;;;;;13.20;59.13;96187.19;2062381;28;20567;-67
2024/04/02 11:25:12;;;;;;;3.33;1.05;;;;;;;13.32;55.88;96167.19;2065648;28;20406;-67
2024/04/02 11:26:14;;;;;;;4.82;1.00;;;;;;;13.13;55.94;96182.38;2063649;28;20224;-67
2024/04/02 11:27:22;;;;;;;3.63;0.90;;;;;;;13.30;56.39;96176.09;2063718;28;20203;-67
2024/04/02 11:28:23;;;;;;;2.67;0.90;;;;;;;12.69;57.82;96174.53;2064439;28;20271;-67
2024/04/02 11:29:23;;;;;;;7.90;1.10;;;;;;;11.82;59.70;96180.50;2071690;28;20321;-67
2024/04/02 11:30:24;;;;;;;1.90;0.80;;;;;;;11.34;60.99;96191.88;2063620;28;20213;-67
2024/04/02 11:31:24;;;;;;;3.87;1.03;;;;;;;11.09;61.63;96187.97;2062762;28;20705;-67
2024/04/02 11:32:26;;;;;;;5.77;0.97;;;;;;;11.17;62.76;96179.69;2063364;28;20215;-67
2024/04/02 11:33:26;;;;;;;6.55;1.40;;;;;;;11.75;62.97;96178.22;2063510;28;20218;-67
2024/04/02 11:34:27;;;;;;;3.87;0.90;;;;;;;12.01;64.33;96186.41;2063612;28;20556;-67
2024/04/02 11:35:29;;;;;;;8.10;1.53;;;;;;;11.57;65.81;96193.19;2071692;28;20289;-67
2024/04/02 11:36:30;;;;;;;4.60;0.93;;;;;;;11.41;68.90;96192.34;2071267;28;20215;-67
2024/04/02 11:37:32;;;;;;;9.30;1.00;;;;;;;11.18;67.31;96191.84;2063052;28;20235;-67
2024/04/02 11:38:34;;;;;;;11.02;1.20;;;;;;;10.91;67.21;96196.78;2063635;28;20208;-67
2024/04/02 11:39:35;;;;;;;3.63;0.95;;;;;;;10.64;68.33;96197.31;2064246;28;20207;-67
2024/04/02 11:40:36;;;;;;;5.30;1.00;;;;;;;10.58;69.31;96197.66;2070987;28;20293;-67
2024/04/02 11:41:41;;;;;;;6.33;1.07;;;;;;;10.85;70.23;96204.97;2071616;28;20597;-67
2024/04/02 11:42:43;;;;;;;2.58;0.70;;;;;;;10.92;70.29;96203.72;2059027;28;20248;-67
2024/04/02 11:43:43;;;;;;;5.03;0.80;;;;;;;10.87;68.41;96193.50;2058005;28;20215;-68
2024/04/02 11:44:44;;;;;;;3.93;0.90;;;;;;;11.60;68.86;96206.13;2059015;28;20207;-67
2024/04/02 11:45:44;;;;;;;2.20;0.80;;;;;;;12.75;66.82;96194.31;2058460;28;20207;-67
2024/04/02 11:46:45;;;;;;;6.87;1.33;;;;;;;12.82;67.39;96187.75;2058938;28;20729;-67
2024/04/02 11:47:47;;;;;;;12.40;1.20;;;;;;;12.97;68.04;96190.38;2063436;28;20204;-68
2024/04/02 11:48:56;;;;;;;4.38;1.65;;;;;;;12.44;65.27;96193.50;2055488;28;20211;-67
2024/04/02 11:49:57;;;;;;;4.35;1.10;;;;;;;12.50;65.38;96197.56;2058050;28;20208;-68
2024/04/02 11:50:58;;;;;;;6.87;2.97;;;;;;;13.15;63.39;96188.38;2058689;28;20711;-66
2024/04/02 11:51:58;;;;;;;12.03;5.70;;;;;;;12.62;63.85;96183.72;2059081;28;20308;-66
2024/04/02 11:52:59;;;;;;;10.27;2.30;;;;;;;12.18;61.29;96188.03;2063628;28;20455;-67
2024/04/02 11:54:00;;;;;;;2.15;1.30;;;;;;;12.19;59.42;96189.72;2063628;28;20213;-67
2024/04/02 11:55:01;;;;;;;2.30;0.80;;;;;;;11.54;59.59;96172.47;2071712;28;20217;-67
2024/04/02 11:56:01;;;;;;;2.43;0.63;;;;;;;11.34;60.71;96173.56;2062803;28;20679;-67
2024/04/02 12:01:03;;;;;;;3.40;0.88;;;;;;;11.66;59.96;96193.63;2064817;28;20730;-66
2024/04/02 12:02:03;;;;;;;11.27;1.00;;;;;;;12.06;58.31;96189.59;2063453;28;20293;-66
2024/04/02 12:03:04;;;;;;;3.20;0.90;;;;;;;12.01;58.36;96196.88;2071125;28;20222;-66
2024/04/02 12:04:04;;;;;;;3.00;0.80;;;;;;;11.47;59.08;96185.97;2062932;28;20244;-66
2024/04/02 12:05:05;;;;;;;5.03;0.80;;;;;;;11.40;59.28;96178.47;2070158;28;20206;-66
2024/04/02 12:06:06;;;;;;;3.58;0.75;;;;;;;11.30;60.30;96194.72;2069230;28;20224;-66
2024/04/02 12:07:07;;;;;;;4.20;0.70;;;;;;;11.05;60.08;96196.91;2063272;28;20310;-66
2024/04/02 12:08:07;;;;;;;4.50;0.80;;;;;;;10.95;60.65;96193.09;2063443;28;20210;-66
2024/04/02 12:09:08;;;;;;;1.80;0.83;;;;;;;10.90;61.62;96200.31;2063510;28;20277;-66
2024/04/02 12:10:11;;;;;;;4.45;1.00;;;;;;;10.90;62.96;96213.38;2063461;28;20214;-67
2024/04/02 12:11:11;;;;;;;6.25;0.80;;;;;;;10.73;63.43;96204.66;2063235;28;20218;-66
2024/04/02 12:12:12;;;;;;;5.13;0.90;;;;;;;10.74;64.04;96205.50;2063202;28;20224;-65